sensor_id;sensor_type;location;lat;lon;timestamp;pressure;altitude;pressure_sealevel;temperature;humidity
72110;BME280;59983;52.010;5.420;2023-08-17T00:01:33;102054.00;;;19.00;95.36
72110;BME280;59983;52.010;5.420;2023-08-17T00:04:00;102044.09;;;18.95;95.01
72110;BME280;59983;52.010;5.420;2023-08-17T00:06:26;102050.25;;;18.85;95.15
72110;BME280;59983;52.010;5.420;2023-08-17T00:08:53;102054.22;;;18.87;95.52
72110;BME280;59983;52.010;5.420;2023-08-17T00:11:19;102046.72;;;18.84;94.70
72110;BME280;59983;52.010;5.420;2023-08-17T00:13:46;102054.47;;;18.79;95.38
72110;BME280;59983;52.010;5.420;2023-08-17T00:16:12;102055.75;;;18.85;95.25
72110;BME280;59983;52.010;5.420;2023-08-17T00:18:39;102051.03;;;18.85;95.49
72110;BME280;59983;52.010;5.420;2023-08-17T00:21:06;102051.84;;;18.86;94.99
72110;BME280;59983;52.010;5.420;2023-08-17T00:23:33;102038.41;;;18.81;94.54
72110;BME280;59983;52.010;5.420;2023-08-17T00:25:59;102043.34;;;18.68;94.62
72110;BME280;59983;52.010;5.420;2023-08-17T00:28:26;102035.75;;;18.61;95.34
72110;BME280;59983;52.010;5.420;2023-08-17T00:30:52;102027.91;;;18.63;95.29
72110;BME280;59983;52.010;5.420;2023-08-17T00:33:19;102031.78;;;18.59;95.44
72110;BME280;59983;52.010;5.420;2023-08-17T00:35:46;102027.41;;;18.54;95.62
72110;BME280;59983;52.010;5.420;2023-08-17T00:38:12;102034.38;;;18.48;95.20
72110;BME280;59983;52.010;5.420;2023-08-17T00:40:39;102036.28;;;18.44;96.74
72110;BME280;59983;52.010;5.420;2023-08-17T00:43:07;102036.22;;;18.40;95.73
72110;BME280;59983;52.010;5.420;2023-08-17T00:45:34;102033.91;;;18.43;96.47
72110;BME280;59983;52.010;5.420;2023-08-17T00:48:02;102029.56;;;18.42;96.16
72110;BME280;59983;52.010;5.420;2023-08-17T00:50:31;102030.75;;;18.40;96.60
72110;BME280;59983;52.010;5.420;2023-08-17T00:52:58;102024.75;;;18.35;97.42
72110;BME280;59983;52.010;5.420;2023-08-17T00:55:25;102025.44;;;18.28;97.20
72110;BME280;59983;52.010;5.420;2023-08-17T00:57:52;102031.00;;;18.32;97.13
72110;BME280;59983;52.010;5.420;2023-08-17T01:00:19;102034.00;;;18.23;96.47
72110;BME280;59983;52.010;5.420;2023-08-17T01:02:46;102037.50;;;18.20;97.64
72110;BME280;59983;52.010;5.420;2023-08-17T01:05:13;102033.31;;;18.30;97.08
72110;BME280;59983;52.010;5.420;2023-08-17T01:07:40;102040.81;;;18.33;96.54
72110;BME280;59983;52.010;5.420;2023-08-17T01:10:07;102030.31;;;18.38;97.21
72110;BME280;59983;52.010;5.420;2023-08-17T01:15:16;102038.38;;;18.28;97.41
72110;BME280;59983;52.010;5.420;2023-08-17T01:17:59;102041.56;;;18.30;97.91
72110;BME280;59983;52.010;5.420;2023-08-17T01:20:27;102037.66;;;18.31;97.47
72110;BME280;59983;52.010;5.420;2023-08-17T01:22:55;102038.06;;;18.33;98.05
72110;BME280;59983;52.010;5.420;2023-08-17T01:25:25;102039.59;;;18.30;98.07
72110;BME280;59983;52.010;5.420;2023-08-17T01:27:51;102039.97;;;18.29;98.00
72110;BME280;59983;52.010;5.420;2023-08-17T01:30:18;102037.22;;;18.29;98.09
72110;BME280;59983;52.010;5.420;2023-08-17T01:32:51;102033.63;;;18.25;98.43
72110;BME280;59983;52.010;5.420;2023-08-17T01:37:57;102029.59;;;18.19;99.14
72110;BME280;59983;52.010;5.420;2023-08-17T01:40:27;102025.63;;;18.16;98.47
72110;BME280;59983;52.010;5.420;2023-08-17T01:42:55;102033.47;;;18.14;99.23
72110;BME280;59983;52.010;5.420;2023-08-17T01:45:23;102019.31;;;18.12;98.81
72110;BME280;59983;52.010;5.420;2023-08-17T01:47:49;102017.41;;;18.16;99.19
72110;BME280;59983;52.010;5.420;2023-08-17T01:50:16;102015.03;;;18.15;99.40
72110;BME280;59983;52.010;5.420;2023-08-17T01:52:42;102025.63;;;18.16;98.64
72110;BME280;59983;52.010;5.420;2023-08-17T01:55:09;102015.78;;;18.11;99.34
72110;BME280;59983;52.010;5.420;2023-08-17T01:57:36;102022.31;;;18.03;98.11
72110;BME280;59983;52.010;5.420;2023-08-17T02:00:04;102019.44;;;17.96;99.55
72110;BME280;59983;52.010;5.420;2023-08-17T02:02:31;102030.00;;;17.94;98.96
72110;BME280;59983;52.010;5.420;2023-08-17T02:04:58;102023.94;;;17.85;99.48
72110;BME280;59983;52.010;5.420;2023-08-17T02:07:24;102028.28;;;17.86;98.75
72110;BME280;59983;52.010;5.420;2023-08-17T02:09:51;102018.34;;;17.78;99.56
72110;BME280;59983;52.010;5.420;2023-08-17T02:12:18;102024.28;;;17.83;99.62
72110;BME280;59983;52.010;5.420;2023-08-17T02:14:44;102023.59;;;17.87;99.01
72110;BME280;59983;52.010;5.420;2023-08-17T02:17:11;102020.28;;;17.77;99.06
72110;BME280;59983;52.010;5.420;2023-08-17T02:19:37;102015.59;;;17.78;99.69
72110;BME280;59983;52.010;5.420;2023-08-17T02:22:04;102017.22;;;17.82;99.43
72110;BME280;59983;52.010;5.420;2023-08-17T02:24:31;102021.44;;;17.76;99.34
72110;BME280;59983;52.010;5.420;2023-08-17T02:26:58;102024.63;;;17.78;100.00
72110;BME280;59983;52.010;5.420;2023-08-17T02:29:24;102025.97;;;17.88;99.87
72110;BME280;59983;52.010;5.420;2023-08-17T02:31:51;102019.97;;;17.82;99.77
72110;BME280;59983;52.010;5.420;2023-08-17T02:34:17;102016.81;;;17.80;99.09
72110;BME280;59983;52.010;5.420;2023-08-17T02:36:44;102019.13;;;17.78;99.21
72110;BME280;59983;52.010;5.420;2023-08-17T02:39:10;102010.31;;;17.69;99.95
72110;BME280;59983;52.010;5.420;2023-08-17T02:41:37;102009.31;;;17.77;100.00
72110;BME280;59983;52.010;5.420;2023-08-17T02:44:03;101999.59;;;17.83;100.00
72110;BME280;59983;52.010;5.420;2023-08-17T02:46:30;101995.63;;;17.81;99.68
72110;BME280;59983;52.010;5.420;2023-08-17T02:48:57;101998.38;;;17.81;99.63
72110;BME280;59983;52.010;5.420;2023-08-17T02:51:24;102005.19;;;17.68;100.00
72110;BME280;59983;52.010;5.420;2023-08-17T02:53:50;102003.53;;;17.63;100.00
72110;BME280;59983;52.010;5.420;2023-08-17T02:56:17;101999.94;;;17.59;100.00
72110;BME280;59983;52.010;5.420;2023-08-17T02:58:43;102009.31;;;17.58;100.00
72110;BME280;59983;52.010;5.420;2023-08-17T03:01:10;102001.75;;;17.51;100.00
72110;BME280;59983;52.010;5.420;2023-08-17T03:03:36;101999.81;;;17.52;100.00
72110;BME280;59983;52.010;5.420;2023-08-17T03:06:03;101991.69;;;17.59;100.00
72110;BME280;59983;52.010;5.420;2023-08-17T03:08:29;102000.81;;;17.67;100.00
72110;BME280;59983;52.010;5.420;2023-08-17T03:10:56;101999.84;;;17.55;100.00
72110;BME280;59983;52.010;5.420;2023-08-17T03:13:22;101997.09;;;17.55;100.00
72110;BME280;59983;52.010;5.420;2023-08-17T03:15:49;102001.94;;;17.62;100.00
72110;BME280;59983;52.010;5.420;2023-08-17T03:18:16;101995.28;;;17.63;100.00
72110;BME280;59983;52.010;5.420;2023-08-17T03:20:44;101997.09;;;17.55;100.00
72110;BME280;59983;52.010;5.420;2023-08-17T03:23:11;101997.47;;;17.54;100.00
72110;BME280;59983;52.010;5.420;2023-08-17T03:25:37;101992.00;;;17.54;100.00
72110;BME280;59983;52.010;5.420;2023-08-17T03:28:04;101991.34;;;17.61;100.00
72110;BME280;59983;52.010;5.420;2023-08-17T03:30:31;101991.69;;;17.59;100.00
72110;BME280;59983;52.010;5.420;2023-08-17T03:32:57;101983.25;;;17.48;100.00
72110;BME280;59983;52.010;5.420;2023-08-17T03:35:24;101985.09;;;17.41;100.00
72110;BME280;59983;52.010;5.420;2023-08-17T03:37:51;101990.34;;;17.49;100.00
72110;BME280;59983;52.010;5.420;2023-08-17T03:40:17;101993.00;;;17.46;100.00
72110;BME280;59983;52.010;5.420;2023-08-17T03:42:44;101985.75;;;17.34;100.00
72110;BME280;59983;52.010;5.420;2023-08-17T03:45:10;101990.50;;;17.37;100.00
72110;BME280;59983;52.010;5.420;2023-08-17T03:47:37;101988.25;;;17.43;100.00
72110;BME280;59983;52.010;5.420;2023-08-17T03:50:04;101987.91;;;17.44;100.00
72110;BME280;59983;52.010;5.420;2023-08-17T03:52:30;101990.34;;;17.30;100.00
72110;BME280;59983;52.010;5.420;2023-08-17T03:54:57;101984.53;;;17.32;100.00
72110;BME280;59983;52.010;5.420;2023-08-17T03:57:23;101986.53;;;17.35;100.00
72110;BME280;59983;52.010;5.420;2023-08-17T03:59:50;101985.00;;;17.37;100.00
72110;BME280;59983;52.010;5.420;2023-08-17T04:02:17;101982.59;;;17.32;100.00
72110;BME280;59983;52.010;5.420;2023-08-17T04:04:43;101982.44;;;17.25;100.00
72110;BME280;59983;52.010;5.420;2023-08-17T04:07:10;101984.44;;;17.28;100.00
72110;BME280;59983;52.010;5.420;2023-08-17T04:09:36;101981.53;;;17.40;100.00
72110;BME280;59983;52.010;5.420;2023-08-17T04:12:04;101991.59;;;17.33;100.00
72110;BME280;59983;52.010;5.420;2023-08-17T04:14:32;101993.88;;;17.31;100.00
72110;BME280;59983;52.010;5.420;2023-08-17T04:16:58;101993.09;;;17.30;100.00
72110;BME280;59983;52.010;5.420;2023-08-17T04:19:25;101990.44;;;17.34;100.00
72110;BME280;59983;52.010;5.420;2023-08-17T04:21:51;101997.13;;;17.36;100.00
72110;BME280;59983;52.010;5.420;2023-08-17T04:24:18;101996.72;;;17.34;100.00
72110;BME280;59983;52.010;5.420;2023-08-17T04:26:44;101991.59;;;17.33;100.00
72110;BME280;59983;52.010;5.420;2023-08-17T04:29:11;101989.50;;;17.26;100.00
72110;BME280;59983;52.010;5.420;2023-08-17T04:31:38;101991.81;;;17.24;100.00
72110;BME280;59983;52.010;5.420;2023-08-17T04:34:04;102010.06;;;17.36;100.00
72110;BME280;59983;52.010;5.420;2023-08-17T04:36:31;101998.59;;;17.30;100.00
72110;BME280;59983;52.010;5.420;2023-08-17T04:38:58;102000.16;;;17.31;100.00
72110;BME280;59983;52.010;5.420;2023-08-17T04:41:24;101989.56;;;17.30;100.00
72110;BME280;59983;52.010;5.420;2023-08-17T04:43:51;102006.09;;;17.33;100.00
72110;BME280;59983;52.010;5.420;2023-08-17T04:46:17;102004.63;;;17.39;100.00
72110;BME280;59983;52.010;5.420;2023-08-17T04:48:44;102004.06;;;17.30;100.00
72110;BME280;59983;52.010;5.420;2023-08-17T04:51:11;102001.22;;;17.23;100.00
72110;BME280;59983;52.010;5.420;2023-08-17T04:53:39;102002.06;;;17.27;100.00
72110;BME280;59983;52.010;5.420;2023-08-17T04:56:06;101993.88;;;17.31;100.00
72110;BME280;59983;52.010;5.420;2023-08-17T04:58:32;101992.03;;;17.35;100.00
72110;BME280;59983;52.010;5.420;2023-08-17T05:00:59;101987.63;;;17.30;100.00
72110;BME280;59983;52.010;5.420;2023-08-17T05:03:26;102002.63;;;17.36;100.00
72110;BME280;59983;52.010;5.420;2023-08-17T05:05:59;101998.72;;;17.37;100.00
72110;BME280;59983;52.010;5.420;2023-08-17T05:08:26;101988.06;;;17.32;100.00
72110;BME280;59983;52.010;5.420;2023-08-17T05:10:52;101984.53;;;17.32;100.00
72110;BME280;59983;52.010;5.420;2023-08-17T05:13:19;101980.91;;;17.27;100.00
72110;BME280;59983;52.010;5.420;2023-08-17T05:15:45;101978.97;;;17.28;100.00
72110;BME280;59983;52.010;5.420;2023-08-17T05:18:12;101985.44;;;17.39;100.00
72110;BME280;59983;52.010;5.420;2023-08-17T05:20:38;101985.56;;;17.46;100.00
72110;BME280;59983;52.010;5.420;2023-08-17T05:23:05;101985.44;;;17.39;100.00
72110;BME280;59983;52.010;5.420;2023-08-17T05:25:31;101995.75;;;17.46;100.00
72110;BME280;59983;52.010;5.420;2023-08-17T05:27:58;101988.31;;;17.46;100.00
72110;BME280;59983;52.010;5.420;2023-08-17T05:30:25;101979.81;;;17.51;100.00
72110;BME280;59983;52.010;5.420;2023-08-17T05:32:51;101986.88;;;17.52;100.00
72110;BME280;59983;52.010;5.420;2023-08-17T05:35:18;101983.75;;;17.54;100.00
72110;BME280;59983;52.010;5.420;2023-08-17T05:37:44;101984.69;;;17.62;100.00
72110;BME280;59983;52.010;5.420;2023-08-17T05:40:11;101988.22;;;17.62;100.00
72110;BME280;59983;52.010;5.420;2023-08-17T05:42:38;101980.84;;;17.66;100.00
72110;BME280;59983;52.010;5.420;2023-08-17T05:45:05;101989.59;;;17.72;100.00
72110;BME280;59983;52.010;5.420;2023-08-17T05:47:31;101984.53;;;17.74;100.00
72110;BME280;59983;52.010;5.420;2023-08-17T05:49:58;101981.50;;;17.79;100.00
72110;BME280;59983;52.010;5.420;2023-08-17T05:52:24;101996.13;;;17.87;100.00
72110;BME280;59983;52.010;5.420;2023-08-17T05:54:51;101992.09;;;17.80;100.00
72110;BME280;59983;52.010;5.420;2023-08-17T05:57:18;102009.84;;;17.87;100.00
72110;BME280;59983;52.010;5.420;2023-08-17T05:59:44;102009.00;;;17.82;100.00
72110;BME280;59983;52.010;5.420;2023-08-17T06:02:11;102011.91;;;17.93;100.00
72110;BME280;59983;52.010;5.420;2023-08-17T06:04:37;102008.88;;;17.98;100.00
72110;BME280;59983;52.010;5.420;2023-08-17T06:07:04;102013.44;;;17.91;100.00
72110;BME280;59983;52.010;5.420;2023-08-17T06:09:30;102020.50;;;17.92;100.00
72110;BME280;59983;52.010;5.420;2023-08-17T06:11:57;102017.34;;;18.13;100.00
72110;BME280;59983;52.010;5.420;2023-08-17T06:14:23;102023.69;;;18.17;100.00
72110;BME280;59983;52.010;5.420;2023-08-17T06:16:50;102019.78;;;18.18;100.00
72110;BME280;59983;52.010;5.420;2023-08-17T06:19:16;102015.97;;;18.26;100.00
72110;BME280;59983;52.010;5.420;2023-08-17T06:21:43;102024.38;;;18.36;100.00
72110;BME280;59983;52.010;5.420;2023-08-17T06:24:10;102027.25;;;18.44;100.00
72110;BME280;59983;52.010;5.420;2023-08-17T06:26:36;102036.38;;;18.51;100.00
72110;BME280;59983;52.010;5.420;2023-08-17T06:29:03;102022.22;;;18.49;100.00
72110;BME280;59983;52.010;5.420;2023-08-17T06:31:29;102027.78;;;18.53;100.00
72110;BME280;59983;52.010;5.420;2023-08-17T06:33:56;102035.75;;;18.61;100.00
72110;BME280;59983;52.010;5.420;2023-08-17T06:36:23;102033.94;;;18.69;100.00
72110;BME280;59983;52.010;5.420;2023-08-17T06:38:50;102033.38;;;18.60;100.00
72110;BME280;59983;52.010;5.420;2023-08-17T06:41:16;102025.66;;;18.65;100.00
72110;BME280;59983;52.010;5.420;2023-08-17T06:43:43;102022.53;;;18.67;99.17
72110;BME280;59983;52.010;5.420;2023-08-17T06:46:10;102028.66;;;18.60;99.60
72110;BME280;59983;52.010;5.420;2023-08-17T06:48:36;102032.63;;;18.63;100.00
72110;BME280;59983;52.010;5.420;2023-08-17T06:51:03;102033.56;;;18.71;99.70
72110;BME280;59983;52.010;5.420;2023-08-17T06:53:31;102027.63;;;18.68;99.44
72110;BME280;59983;52.010;5.420;2023-08-17T06:55:57;102024.47;;;18.66;99.76
72110;BME280;59983;52.010;5.420;2023-08-17T06:58:28;102032.28;;;18.64;100.00
72110;BME280;59983;52.010;5.420;2023-08-17T07:00:54;102024.13;;;18.72;99.85
72110;BME280;59983;52.010;5.420;2023-08-17T07:03:21;102027.25;;;18.70;100.00
72110;BME280;59983;52.010;5.420;2023-08-17T07:05:47;102027.25;;;18.70;99.85
72110;BME280;59983;52.010;5.420;2023-08-17T07:08:14;102033.97;;;18.73;99.29
72110;BME280;59983;52.010;5.420;2023-08-17T07:10:41;102033.38;;;18.60;99.22
72110;BME280;59983;52.010;5.420;2023-08-17T07:13:07;102034.16;;;18.60;100.00
72110;BME280;59983;52.010;5.420;2023-08-17T07:15:34;102024.59;;;18.51;100.00
72110;BME280;59983;52.010;5.420;2023-08-17T07:18:00;102032.09;;;18.54;100.00
72110;BME280;59983;52.010;5.420;2023-08-17T07:20:27;102031.78;;;18.59;100.00
72110;BME280;59983;52.010;5.420;2023-08-17T07:22:54;102037.09;;;18.71;100.00
72110;BME280;59983;52.010;5.420;2023-08-17T07:25:20;102031.19;;;18.69;100.00
72110;BME280;59983;52.010;5.420;2023-08-17T07:27:47;102029.63;;;18.72;100.00
72110;BME280;59983;52.010;5.420;2023-08-17T07:30:13;102037.94;;;18.75;100.00
72110;BME280;59983;52.010;5.420;2023-08-17T07:32:40;102040.84;;;18.86;100.00
72110;BME280;59983;52.010;5.420;2023-08-17T07:35:07;102036.97;;;18.90;100.00
72110;BME280;59983;52.010;5.420;2023-08-17T07:37:33;102040.59;;;18.98;99.68
72110;BME280;59983;52.010;5.420;2023-08-17T07:40:01;102045.09;;;19.10;100.00
72110;BME280;59983;52.010;5.420;2023-08-17T07:42:30;102036.31;;;19.34;97.69
72110;BME280;59983;52.010;5.420;2023-08-17T07:44:57;102031.16;;;19.29;96.61
72110;BME280;59983;52.010;5.420;2023-08-17T07:47:24;102029.38;;;19.10;98.35
72110;BME280;59983;52.010;5.420;2023-08-17T07:49:51;102036.47;;;19.11;97.31
72110;BME280;59983;52.010;5.420;2023-08-17T07:52:17;102024.28;;;19.12;97.31
72110;BME280;59983;52.010;5.420;2023-08-17T07:54:45;102025.78;;;19.06;97.79
72110;BME280;59983;52.010;5.420;2023-08-17T07:57:11;102031.34;;;19.10;96.83
72110;BME280;59983;52.010;5.420;2023-08-17T07:59:38;102028.91;;;19.05;96.48
72110;BME280;59983;52.010;5.420;2023-08-17T08:02:04;102032.34;;;18.98;98.62
72110;BME280;59983;52.010;5.420;2023-08-17T08:04:31;102036.41;;;19.08;98.85
72110;BME280;59983;52.010;5.420;2023-08-17T08:06:58;102033.44;;;19.23;97.44
72110;BME280;59983;52.010;5.420;2023-08-17T08:09:24;102034.28;;;19.61;97.70
72110;BME280;59983;52.010;5.420;2023-08-17T08:11:51;102041.22;;;19.85;95.52
72110;BME280;59983;52.010;5.420;2023-08-17T08:14:17;102045.25;;;19.95;95.47
72110;BME280;59983;52.010;5.420;2023-08-17T08:16:44;102037.72;;;19.88;93.49
72110;BME280;59983;52.010;5.420;2023-08-17T08:19:11;102041.22;;;19.85;95.01
72110;BME280;59983;52.010;5.420;2023-08-17T08:21:37;102042.78;;;19.86;94.42
72110;BME280;59983;52.010;5.420;2023-08-17T08:24:04;102042.75;;;19.79;94.13
72110;BME280;59983;52.010;5.420;2023-08-17T08:26:39;102037.56;;;19.70;94.18
72110;BME280;59983;52.010;5.420;2023-08-17T08:29:06;102040.34;;;19.77;95.53
72110;BME280;59983;52.010;5.420;2023-08-17T08:31:32;102036.47;;;19.82;94.62
72110;BME280;59983;52.010;5.420;2023-08-17T08:33:59;102035.22;;;19.72;94.81
72110;BME280;59983;52.010;5.420;2023-08-17T08:36:26;102046.97;;;19.69;95.26
72110;BME280;59983;52.010;5.420;2023-08-17T08:38:52;102045.38;;;19.68;93.64
72110;BME280;59983;52.010;5.420;2023-08-17T08:41:19;102049.19;;;19.57;95.21
72110;BME280;59983;52.010;5.420;2023-08-17T08:43:46;102048.91;;;19.69;96.77
72110;BME280;59983;52.010;5.420;2023-08-17T08:46:15;102038.69;;;19.69;94.79
72110;BME280;59983;52.010;5.420;2023-08-17T08:48:45;102032.38;;;19.65;96.15
72110;BME280;59983;52.010;5.420;2023-08-17T08:51:16;102036.88;;;19.84;95.60
72110;BME280;59983;52.010;5.420;2023-08-17T08:53:45;102041.63;;;19.87;95.85
72110;BME280;59983;52.010;5.420;2023-08-17T08:56:12;102031.78;;;19.86;94.34
72110;BME280;59983;52.010;5.420;2023-08-17T08:58:42;102030.28;;;19.96;95.33
72110;BME280;59983;52.010;5.420;2023-08-17T09:01:10;102036.72;;;20.07;94.40
72110;BME280;59983;52.010;5.420;2023-08-17T09:03:37;102016.19;;;20.04;93.80
72110;BME280;59983;52.010;5.420;2023-08-17T09:06:04;102028.38;;;20.00;94.52
72110;BME280;59983;52.010;5.420;2023-08-17T09:08:31;102019.09;;;20.22;95.92
72110;BME280;59983;52.010;5.420;2023-08-17T09:10:57;102025.13;;;20.35;91.75
72110;BME280;59983;52.010;5.420;2023-08-17T09:13:24;102023.13;;;20.32;93.52
72110;BME280;59983;52.010;5.420;2023-08-17T09:15:50;102015.69;;;20.40;94.40
72110;BME280;59983;52.010;5.420;2023-08-17T09:18:18;102015.34;;;20.45;94.18
72110;BME280;59983;52.010;5.420;2023-08-17T09:20:46;102014.47;;;20.33;94.72
72110;BME280;59983;52.010;5.420;2023-08-17T09:23:19;102009.72;;;20.30;93.76
72110;BME280;59983;52.010;5.420;2023-08-17T09:25:48;102010.50;;;20.31;93.71
72110;BME280;59983;52.010;5.420;2023-08-17T09:28:16;102013.00;;;20.43;94.26
72110;BME280;59983;52.010;5.420;2023-08-17T09:33:20;102000.34;;;20.42;93.73
72110;BME280;59983;52.010;5.420;2023-08-17T09:35:47;102007.84;;;20.42;94.01
72110;BME280;59983;52.010;5.420;2023-08-17T09:38:13;102009.50;;;20.50;92.35
72110;BME280;59983;52.010;5.420;2023-08-17T09:40:40;102006.41;;;20.58;92.42
72110;BME280;59983;52.010;5.420;2023-08-17T09:43:08;102007.63;;;20.72;91.64
72110;BME280;59983;52.010;5.420;2023-08-17T09:45:36;102011.22;;;20.79;90.86
72110;BME280;59983;52.010;5.420;2023-08-17T09:48:04;102010.00;;;20.70;90.95
72110;BME280;59983;52.010;5.420;2023-08-17T09:50:30;102007.56;;;20.57;91.76
72110;BME280;59983;52.010;5.420;2023-08-17T09:52:57;102011.19;;;20.69;92.80
72110;BME280;59983;52.010;5.420;2023-08-17T09:55:24;102000.09;;;20.61;91.45
72110;BME280;59983;52.010;5.420;2023-08-17T09:57:51;102000.50;;;20.67;91.86
72110;BME280;59983;52.010;5.420;2023-08-17T10:00:19;101996.16;;;20.59;91.39
72110;BME280;59983;52.010;5.420;2023-08-17T10:02:49;101994.16;;;20.56;92.45
72110;BME280;59983;52.010;5.420;2023-08-17T10:05:19;101998.59;;;20.75;92.41
72110;BME280;59983;52.010;5.420;2023-08-17T10:07:51;102000.16;;;20.69;92.26
72110;BME280;59983;52.010;5.420;2023-08-17T10:10:26;101984.75;;;20.64;91.09
72110;BME280;59983;52.010;5.420;2023-08-17T10:13:11;101975.31;;;20.65;92.79
72110;BME280;59983;52.010;5.420;2023-08-17T10:16:17;101979.13;;;20.46;93.25
72110;BME280;59983;52.010;5.420;2023-08-17T10:19:37;101975.19;;;20.44;94.17
72110;BME280;59983;52.010;5.420;2023-08-17T10:22:27;101974.91;;;20.59;94.30
72110;BME280;59983;52.010;5.420;2023-08-17T10:24:57;101973.44;;;20.87;93.61
72110;BME280;59983;52.010;5.420;2023-08-17T10:27:26;101980.56;;;21.02;92.04
72110;BME280;59983;52.010;5.420;2023-08-17T10:29:53;101971.94;;;21.04;92.43
72110;BME280;59983;52.010;5.420;2023-08-17T10:32:22;101981.00;;;21.11;92.09
72110;BME280;59983;52.010;5.420;2023-08-17T10:34:54;101975.50;;;21.15;91.04
72110;BME280;59983;52.010;5.420;2023-08-17T10:37:21;101981.03;;;21.15;91.81
72110;BME280;59983;52.010;5.420;2023-08-17T10:39:50;101978.63;;;21.06;92.39
72110;BME280;59983;52.010;5.420;2023-08-17T10:42:30;101986.53;;;21.04;92.17
72110;BME280;59983;52.010;5.420;2023-08-17T10:44:59;101982.53;;;21.02;92.43
72110;BME280;59983;52.010;5.420;2023-08-17T10:47:31;101980.97;;;20.97;90.94
72110;BME280;59983;52.010;5.420;2023-08-17T10:50:06;101982.16;;;20.96;94.21
72110;BME280;59983;52.010;5.420;2023-08-17T10:52:48;101980.50;;;20.84;90.94
72110;BME280;59983;52.010;5.420;2023-08-17T10:55:15;101976.91;;;20.70;92.65
72110;BME280;59983;52.010;5.420;2023-08-17T10:57:43;101984.78;;;20.75;94.47
72110;BME280;59983;52.010;5.420;2023-08-17T11:00:20;101979.66;;;20.70;92.43
72110;BME280;59983;52.010;5.420;2023-08-17T11:03:08;101978.84;;;20.65;92.60
72110;BME280;59983;52.010;5.420;2023-08-17T11:05:38;101972.50;;;20.54;95.36
72110;BME280;59983;52.010;5.420;2023-08-17T11:08:06;101978.88;;;20.69;93.51
72110;BME280;59983;52.010;5.420;2023-08-17T11:10:33;101972.59;;;20.72;94.68
72110;BME280;59983;52.010;5.420;2023-08-17T11:13:00;101965.53;;;20.82;94.36
72110;BME280;59983;52.010;5.420;2023-08-17T11:15:40;101969.56;;;21.06;93.56
72110;BME280;59983;52.010;5.420;2023-08-17T11:18:12;101963.72;;;21.29;92.79
72110;BME280;59983;52.010;5.420;2023-08-17T11:20:40;101964.16;;;21.38;92.06
72110;BME280;59983;52.010;5.420;2023-08-17T11:23:08;101966.91;;;21.31;92.44
72110;BME280;59983;52.010;5.420;2023-08-17T11:25:37;101964.88;;;21.17;91.55
72110;BME280;59983;52.010;5.420;2023-08-17T11:28:06;101969.94;;;21.01;93.71
72110;BME280;59983;52.010;5.420;2023-08-17T11:30:35;101973.47;;;21.01;92.89
72110;BME280;59983;52.010;5.420;2023-08-17T11:33:05;101966.81;;;21.06;94.84
72110;BME280;59983;52.010;5.420;2023-08-17T11:35:33;101971.16;;;21.17;94.08
72110;BME280;59983;52.010;5.420;2023-08-17T11:38:00;101968.03;;;21.26;92.20
72110;BME280;59983;52.010;5.420;2023-08-17T11:40:27;101966.91;;;21.31;92.93
72110;BME280;59983;52.010;5.420;2023-08-17T11:42:53;101977.19;;;21.48;92.39
72110;BME280;59983;52.010;5.420;2023-08-17T11:45:20;101975.59;;;21.54;90.82
72110;BME280;59983;52.010;5.420;2023-08-17T11:47:53;101963.81;;;21.57;90.37
72110;BME280;59983;52.010;5.420;2023-08-17T11:50:19;101972.06;;;21.54;90.90
72110;BME280;59983;52.010;5.420;2023-08-17T11:52:47;101974.81;;;21.39;91.42
72110;BME280;59983;52.010;5.420;2023-08-17T11:55:16;101974.41;;;21.37;91.08
72110;BME280;59983;52.010;5.420;2023-08-17T11:57:44;101973.22;;;21.42;92.50
72110;BME280;59983;52.010;5.420;2023-08-17T12:00:21;101959.81;;;21.44;92.08
72110;BME280;59983;52.010;5.420;2023-08-17T12:02:51;101959.44;;;21.53;90.55
72110;BME280;59983;52.010;5.420;2023-08-17T12:05:20;101958.69;;;21.56;92.25
72110;BME280;59983;52.010;5.420;2023-08-17T12:07:50;101957.50;;;21.74;90.44
72110;BME280;59983;52.010;5.420;2023-08-17T12:10:19;101963.81;;;21.93;90.26
72110;BME280;59983;52.010;5.420;2023-08-17T12:12:49;101961.84;;;22.15;88.82
72110;BME280;59983;52.010;5.420;2023-08-17T12:15:16;101956.28;;;22.29;89.00
72110;BME280;59983;52.010;5.420;2023-08-17T12:17:47;101961.03;;;22.07;88.31
72110;BME280;59983;52.010;5.420;2023-08-17T12:20:20;101958.25;;;22.03;85.86
72110;BME280;59983;52.010;5.420;2023-08-17T12:22:47;101954.34;;;21.94;88.68
72110;BME280;59983;52.010;5.420;2023-08-17T12:25:14;101957.50;;;21.74;88.87
72110;BME280;59983;52.010;5.420;2023-08-17T12:27:41;101963.81;;;21.75;90.95
72110;BME280;59983;52.010;5.420;2023-08-17T12:30:24;101968.53;;;21.67;88.70
72110;BME280;59983;52.010;5.420;2023-08-17T12:32:51;101953.94;;;21.77;91.12
72110;BME280;59983;52.010;5.420;2023-08-17T12:35:19;101963.41;;;21.76;90.46
72110;BME280;59983;52.010;5.420;2023-08-17T12:37:48;101951.97;;;21.85;90.39
72110;BME280;59983;52.010;5.420;2023-08-17T12:40:14;101966.56;;;21.93;90.28
72110;BME280;59983;52.010;5.420;2023-08-17T12:42:41;101960.25;;;21.85;88.25
72110;BME280;59983;52.010;5.420;2023-08-17T12:45:08;101966.97;;;21.66;89.66
72110;BME280;59983;52.010;5.420;2023-08-17T12:47:34;101967.31;;;21.54;89.69
72110;BME280;59983;52.010;5.420;2023-08-17T12:50:01;101965.75;;;21.39;89.11
72110;BME280;59983;52.010;5.420;2023-08-17T12:52:30;101973.22;;;21.31;90.56
72110;BME280;59983;52.010;5.420;2023-08-17T12:54:57;101965.28;;;21.26;91.58
72110;BME280;59983;52.010;5.420;2023-08-17T12:57:23;101965.69;;;21.21;91.11